Data for 06/04/2009

Time Sea-Level Adjusted Pressure Absolute Pressure Temperature Relative Humidity Dew Point   
(mb) (inHg) (mb) (inHg) (C) (F) (%) (C) (F)
00:05 1022 30.18 852 25.16 9.8 49.7 74 5.5 41.9
00:10 1022 30.18 852 25.16 9.8 49.6 74 5.4 41.8
00:15 1022 30.18 852 25.16 9.8 49.6 74 5.4 41.7
00:20 1022 30.18 852 25.16 9.8 49.6 74 5.3 41.6
00:25 1022 30.18 851 25.13 9.8 49.6 74 5.4 41.8
00:30 1022 30.18 851 25.13 9.6 49.3 75 5.4 41.6
00:35 1022 30.18 851 25.13 9.7 49.4 74 5.2 41.4
00:40 1022 30.18 852 25.16 9.7 49.4 74 5.3 41.5
00:45 1022 30.18 852 25.16 9.7 49.5 73 5.2 41.4
00:50 1022 30.18 852 25.16 9.7 49.4 74 5.3 41.5
00:55 1022 30.18 852 25.16 9.5 49.1 75 5.3 41.5
01:00 1022 30.18 852 25.16 9.3 48.7 75 5.2 41.3
01:05 1022 30.18 852 25.16 9 48.2 76 5.1 41.1
01:10 1022 30.18 852 25.16 9 48.2 76 5.1 41.1
01:15 1022 30.18 852 25.16 9.1 48.4 75 5 41
01:20 1022 30.18 852 25.16 9.3 48.7 75 5.1 41.3
01:25 1022 30.18 852 25.16 9.2 48.5 76 5.2 41.3
01:30 1022 30.18 852 25.16 9 48.2 76 5.1 41.2
01:35 1022 30.18 852 25.16 8.9 48 77 5.1 41.2
01:40 1022 30.18 852 25.16 8.7 47.7 79 5.3 41.5
01:45 1022 30.18 852 25.16 8.6 47.4 80 5.2 41.4
01:50 1022 30.18 852 25.16 8.5 47.4 79 5.2 41.3
01:55 1022 30.18 852 25.16 8.6 47.4 79 5.1 41.2
02:00 1022 30.18 852 25.16 8.4 47.1 79 5 40.9
02:05 1022 30.18 852 25.16 8.2 46.8 80 5 40.9
02:10 1022 30.18 851 25.13 8.1 46.5 79 4.7 40.5
02:15 1022 30.18 851 25.13 7.9 46.2 81 4.8 40.7
02:20 1022 30.18 852 25.16 7.8 46.1 82 4.9 40.7
02:25 1022 30.18 852 25.16 7.7 45.9 82 4.8 40.6
02:30 1022 30.18 852 25.16 7.6 45.6 81 4.6 40.2
02:35 1022 30.18 851 25.13 7.6 45.6 81 4.6 40.3
02:40 1022 30.18 851 25.13 7.6 45.6 82 4.7 40.4
02:45 1022 30.18 851 25.13 7.6 45.7 82 4.7 40.5
02:50 1022 30.18 851 25.13 7.6 45.7 82 4.7 40.5
02:55 1022 30.18 851 25.13 7.6 45.8 82 4.8 40.7
03:00 1022 30.18 851 25.13 7.6 45.6 83 4.8 40.6
03:05 1022 30.18 851 25.13 7.3 45.1 83 4.7 40.4
03:10 1022 30.18 851 25.13 6.9 44.4 85 4.5 40.2
03:15 1022 30.18 851 25.13 6.7 44 85 4.4 39.9
03:20 1022 30.18 851 25.13 6.6 43.8 84 4.1 39.5
03:25 1022 30.18 851 25.13 6.5 43.7 84 4 39.1
03:30 1022 30.18 851 25.13 6.7 44 82 3.9 39
03:35 1022 30.18 851 25.13 7 44.6 81 4 39.2
03:40 1022 30.18 851 25.13 7.2 45 80 4 39.3
03:45 1022 30.18 851 25.13 7.3 45.1 81 4.2 39.6
03:50 1022 30.18 851 25.13 7.3 45.1 82 4.4 39.9
03:55 1022 30.18 851 25.13 7.4 45.4 81 4.5 40
04:00 1022 30.18 851 25.13 7.3 45.1 81 4.3 39.8
04:05 1022 30.18 851 25.13 7.2 45 81 4.2 39.6
04:10 1022 30.18 851 25.13 7 44.6 81 4 39.2
04:15 1022 30.18 851 25.13 7 44.6 81 4 39.2
04:20 1022 30.18 851 25.13 7 44.6 83 4.3 39.7
04:25 1022 30.18 851 25.13 7 44.5 82 4.1 39.3
04:30 1022 30.18 851 25.13 7.2 44.9 81 4.2 39.5
04:35 1022 30.18 851 25.13 7.3 45.2 82 4.4 40
04:40 1022 30.18 851 25.13 7.3 45.1 81 4.2 39.5
04:45 1022 30.18 851 25.13 7 44.5 82 4.1 39.3
04:50 1022 30.18 851 25.13 6.8 44.2 82 3.9 39.1
04:55 1022 30.18 851 25.13 6.7 44.1 82 3.9 39
05:00 1022 30.18 851 25.13 6.7 44.1 83 4 39.2
05:05 1022 30.18 851 25.13 6.7 44.1 82 3.9 39
05:10 1022 30.18 851 25.13 6.6 43.8 83 3.9 39.1
05:15 1022 30.18 851 25.13 6.6 44 82 3.8 38.8
05:20 1022 30.18 851 25.13 6.5 43.8 82 3.8 38.8
05:25 1022 30.18 851 25.13 6.4 43.5 83 3.7 38.7
05:30 1022 30.18 851 25.13 6.3 43.4 82 3.5 38.3
05:35 1022 30.18 851 25.13 6.3 43.4 82 3.4 38.1
05:40 1022 30.18 851 25.13 6.5 43.7 81 3.5 38.4
05:45 1022 30.18 851 25.13 6.6 43.8 81 3.6 38.5
05:50 1022 30.18 851 25.13 6.7 44 82 3.8 38.8
05:55 1022 30.18 851 25.13 6.6 43.8 83 3.9 38.9
06:00 1022 30.18 851 25.13 6.6 43.9 82 3.8 38.8
06:05 1022 30.18 851 25.13 6.7 44.1 82 3.9 39
06:10 1022 30.18 851 25.13 7 44.6 81 3.9 39.1
06:15 1022 30.18 851 25.13 7.2 45 80 4 39.3
06:20 1022 30.18 851 25.13 7.3 45.2 81 4.3 39.7
06:25 1022 30.18 851 25.13 7.6 45.6 81 4.5 40.1
06:30 1022 30.18 851 25.13 7.7 45.8 81 4.5 40.2
06:35 1022 30.18 851 25.13 7.7 45.9 81 4.6 40.2
06:40 1022 30.18 851 25.13 7.8 46.1 79 4.5 40.1
06:45 1022 30.18 851 25.13 7.9 46.3 80 4.7 40.4
06:50 1022 30.18 851 25.13 8 46.5 79 4.7 40.4
06:55 1022 30.18 851 25.13 8.2 46.7 79 4.8 40.6
07:00 1022 30.18 851 25.13 8.3 46.9 79 4.8 40.7
07:05 1022 30.18 851 25.13 8.4 47.1 79 5 41
07:10 1022 30.18 851 25.13 8.3 46.9 80 5 41
07:15 1022 30.18 851 25.13 8.4 47.1 79 5 41
07:20 1022 30.18 851 25.13 8.7 47.6 78 5.1 41.2
07:25 1022 30.18 851 25.13 9.2 48.5 76 5.1 41.2
07:30 1022 30.18 851 25.13 9.3 48.8 76 5.4 41.7
07:35 1022 30.18 851 25.13 9.4 48.9 76 5.3 41.6
07:40 1022 30.18 851 25.13 9.8 49.7 73 5.3 41.5
07:45 1022 30.18 851 25.13 10.3 50.5 73 5.7 42.2
07:50 1022 30.18 851 25.13 10.6 51 73 6 42.9
07:55 1022 30.18 851 25.13 11 51.8 71 5.9 42.6
08:00 1022 30.18 851 25.13 11 51.9 70 5.8 42.5
08:05 1022 30.18 851 25.13 11.2 52.2 69 5.8 42.5
08:10 1022 30.18 851 25.13 11.3 52.3 70 6 42.7
08:15 1022 30.18 851 25.13 11.9 53.5 66 5.8 42.4
08:20 1022 30.18 851 25.13 12.2 54 65 5.9 42.7
08:25 1022 30.18 851 25.13 12.4 54.3 65 6 42.9
08:30 1022 30.18 851 25.13 12.8 55.1 63 5.9 42.7
08:35 1022 30.18 851 25.13 12.3 54.1 63 5.6 42.1
08:40 1022 30.18 851 25.13 13.1 55.6 58 5.1 41.2
08:45 1022 30.18 851 25.13 13.9 57 55 5.2 41.3
08:50 1022 30.18 851 25.13 14.1 57.4 54 4.9 40.8
08:55 1022 30.18 851 25.13 14.8 58.6 53 5.3 41.6
09:00 1022 30.18 851 25.13 15 59 51 5 41
09:05 1022 30.18 851 25.13 15.3 59.5 51 5.2 41.3
09:10 1022 30.18 851 25.13 15.5 59.8 51 5.4 41.7
09:15 1022 30.18 851 25.13 15.4 59.6 49 4.8 40.7
09:20 1022 30.18 851 25.13 15.9 60.5 49 5.2 41.3
09:25 1022 30.18 851 25.13 16.5 61.6 47 5.2 41.4
09:30 1022 30.18 851 25.13 16.1 60.9 50 5.7 42.2
09:35 1022 30.18 851 25.13 15.5 60 51 5.4 41.8
09:40 1022 30.18 851 25.13 15.6 60.1 51 5.6 42.1
09:45 1022 30.18 851 25.13 16.2 61.1 49 5.4 41.8
09:50 1022 30.18 851 25.13 16.9 62.4 46 5.2 41.4
09:55 1022 30.18 851 25.13 17.3 63.2 44 5.1 41.2
10:00 1022 30.18 851 25.13 17.4 63.3 48 6.3 43.4
10:05 1022 30.18 851 25.13 17.4 63.2 47 5.9 42.7
10:10 1021 30.15 851 25.13 17.4 63.4 47 6 42.8
10:15 1021 30.15 851 25.13 17.6 63.7 44 5.4 41.7
10:20 1022 30.18 851 25.13 17.2 63 47 6.1 42.9
10:25 1021 30.15 851 25.13 16.9 62.3 46 5.4 41.6
10:30 1021 30.15 851 25.13 17.2 63 47 6 42.8
10:35 1021 30.15 851 25.13 17.5 63.4 44 5.2 41.4
10:40 1021 30.15 851 25.13 18.4 65.1 42 5.5 41.8
10:45 1021 30.15 851 25.13 18.3 65 44 6 42.8
10:50 1021 30.15 851 25.13 18.4 65 40 4.7 40.4
10:55 1021 30.15 850 25.1 18.4 65.1 43 5.7 42.2
11:00 1021 30.15 850 25.1 18.9 66.1 41 5.4 41.7
11:05 1021 30.15 850 25.1 19.2 66.6 39 5.2 41.4
11:10 1021 30.15 850 25.1 19.1 66.5 37 4.3 39.7
11:15 1021 30.15 850 25.1 19 66.1 36 3.8 38.8
11:20 1021 30.15 850 25.1 19.4 67 32 2.4 36.3
11:25 1021 30.15 850 25.1 19.1 66.3 34 3.2 37.7
11:30 1021 30.15 850 25.1 19.6 67.3 35 3.8 38.8
11:35 1021 30.15 850 25.1 19 66.2 35 3.3 37.9
11:40 1021 30.15 850 25.1 19.5 67.1 31 2.3 36.1
11:45 1021 30.15 850 25.1 20.1 68.2 28 1.4 34.5
11:50 1021 30.15 850 25.1 20.4 68.7 31 2.8 37
11:55 1021 30.15 850 25.1 20.9 69.5 31 3.1 37.6
12:00 1021 30.15 850 25.1 21 69.7 29 2.7 36.8
12:05 1021 30.15 850 25.1 20.1 68.2 29 1.6 34.8
12:10 1021 30.15 850 25.1 20.4 68.8 25 -0.1 31.8
12:15 1021 30.15 850 25.1 21.2 70.1 21 -1.6 29.2
12:20 1021 30.15 850 25.1 21.1 70 23 -0.6 30.9
12:25 1021 30.15 850 25.1 21.2 70.2 24 0.2 32.4
12:30 1020 30.12 850 25.1 21.2 70.2 25 0.7 33.3
12:35 1020 30.12 850 25.1 21.6 70.9 25 0.8 33.4
12:40 1020 30.12 850 25.1 22.1 71.7 22 -0.3 31.4
12:45 1020 30.12 849 25.07 21.5 70.8 24 0.3 32.5
12:50 1020 30.12 849 25.07 22.1 71.7 25 1.4 34.5
12:55 1020 30.12 849 25.07 22.5 72.5 25 1.6 35
13:00 1020 30.12 849 25.07 22 71.6 25 1.4 34.5
13:05 1020 30.12 849 25.07 21.1 69.9 26 0.9 33.5
13:10 1020 30.12 849 25.07 21.2 70.1 26 1.2 34.2
13:15 1020 30.12 849 25.07 21.4 70.5 26 1 33.9
13:20 1020 30.12 849 25.07 21.3 70.4 26 1.4 34.6
13:25 1020 30.12 849 25.07 21.1 69.9 26 1.2 34.1
13:30 1020 30.12 849 25.07 21 69.8 24 0.1 32.1
13:35 1020 30.12 849 25.07 20.8 69.5 25 0.4 32.7
13:40 1020 30.12 849 25.07 20.4 68.8 26 0.6 33
13:45 1020 30.12 849 25.07 20.5 68.9 25 0.2 32.3
13:50 1020 30.12 849 25.07 21.1 70 21 -1.6 29.1
13:55 1020 30.12 849 25.07 21.9 71.4 22 -0.4 31.2
14:00 1020 30.12 849 25.07 22 71.7 24 1 33.7
14:05 1020 30.12 849 25.07 20.8 69.5 23 -0.7 30.7
14:10 1019 30.09 849 25.07 20.8 69.4 25 0.3 32.5
14:15 1020 30.12 849 25.07 21.9 71.3 22 -0.7 30.7
14:20 1019 30.09 849 25.07 22.7 72.9 21 -0.2 31.6
14:25 1020 30.12 849 25.07 22.8 73 21 -0.2 31.6
14:30 1020 30.12 849 25.07 22.7 72.9 23 0.8 33.4
14:35 1019 30.09 849 25.07 22 71.6 22 -0.5 31.2
14:40 1019 30.09 849 25.07 22.1 71.7 23 0.2 32.4
14:45 1019 30.09 848 25.04 21.5 70.7 23 -0.5 31.2
14:50 1019 30.09 848 25.04 22.1 71.8 26 2.2 35.9
14:55 1019 30.09 848 25.04 21.5 70.6 27 2.1 35.8
15:00 1019 30.09 848 25.04 21.6 70.8 25 1.1 34
15:05 1019 30.09 848 25.04 22 71.6 24 0.6 33.1
15:10 1019 30.09 848 25.04 21.2 70.2 26 1.1 34
15:15 1019 30.09 848 25.04 21.6 70.8 27 2 35.6
15:20 1019 30.09 848 25.04 21 69.8 24 0 32.1
15:25 1019 30.09 848 25.04 21.2 70.1 25 0.4 32.8
15:30 1019 30.09 848 25.04 22 71.5 22 -0.4 31.3
15:35 1019 30.09 848 25.04 21.8 71.3 22 -0.5 31.1
15:40 1019 30.09 848 25.04 21.8 71.3 22 -0.9 30.3
15:45 1019 30.09 848 25.04 22.1 71.7 23 0.2 32.3
15:50 1019 30.09 848 25.04 21.7 71.1 24 0.5 32.8
15:55 1019 30.09 848 25.04 21.7 71 26 1.3 34.3
16:00 1019 30.09 848 25.04 21 69.9 27 1.5 34.7
16:05 1019 30.09 848 25.04 21.2 70.1 26 1.3 34.4
16:10 1019 30.09 848 25.04 21 69.8 25 0.5 32.9
16:15 1019 30.09 848 25.04 21.2 70.2 24 -0 32
16:20 1019 30.09 848 25.04 20.7 69.3 25 -0 31.9
16:25 1019 30.09 848 25.04 20.4 68.8 25 -0.1 31.8
16:30 1019 30.09 848 25.04 20.5 69 23 -1.4 29.4
16:35 1019 30.09 848 25.04 20.4 68.8 23 -1.1 30
16:40 1019 30.09 848 25.04 20.5 68.9 21 -2.2 28
16:45 1019 30.09 848 25.04 20.7 69.3 20 -2.9 26.9
16:50 1019 30.09 848 25.04 20.6 69.1 22 -1.5 29.4
16:55 1019 30.09 848 25.04 20.8 69.4 24 -0.6 31
17:00 1019 30.09 848 25.04 20.8 69.4 23 -1.1 30
17:05 1019 30.09 848 25.04 20.9 69.7 24 -0.1 31.9
17:10 1019 30.09 848 25.04 21 69.7 25 0.2 32.4
17:15 1019 30.09 848 25.04 20.7 69.2 25 0.3 32.6
17:20 1019 30.09 848 25.04 20.5 68.9 26 0.5 32.9
17:25 1019 30.09 848 25.04 20.6 69.2 26 0.4 32.7
17:30 1019 30.09 848 25.04 20.8 69.5 26 0.6 33
17:35 1019 30.09 848 25.04 20.6 69.1 35 4.7 40.5
17:40 1019 30.09 848 25.04 19.2 66.6 40 5.6 42
17:45 1019 30.09 848 25.04 18.7 65.7 41 5.4 41.7
17:50 1019 30.09 848 25.04 18.6 65.6 40 4.8 40.7
17:55 1019 30.09 848 25.04 18.7 65.6 39 4.5 40
18:00 1019 30.09 848 25.04 18.9 65.9 37 4 39.1
18:05 1019 30.09 848 25.04 18.8 65.8 35 3.1 37.5
18:10 1019 30.09 848 25.04 18.7 65.7 33 2.2 36
18:15 1019 30.09 848 25.04 18.7 65.6 33 2 35.7
18:20 1019 30.09 848 25.04 18.8 65.9 34 2.7 36.8
18:25 1019 30.09 848 25.04 18.4 65.2 35 2.7 36.9
18:30 1019 30.09 848 25.04 18.4 65.1 31 1.3 34.3
18:35 1019 30.09 848 25.04 18.5 65.2 31 1.2 34.2
18:40 1019 30.09 848 25.04 18 64.5 32 1.2 34.2
18:45 1019 30.09 848 25.04 17.8 64.1 32 0.9 33.6
18:50 1019 30.09 848 25.04 17.7 63.9 34 1.7 35.1
18:55 1019 30.09 848 25.04 17.7 63.9 32 1.1 34
19:00 1019 30.09 848 25.04 17.5 63.5 33 1 33.9
19:05 1019 30.09 848 25.04 17.4 63.3 33 1.2 34.2
19:10 1019 30.09 848 25.04 17.3 63.1 34 1.4 34.5
19:15 1019 30.09 848 25.04 17.3 63.1 34 1.5 34.6
19:20 1019 30.09 849 25.07 17.2 62.9 36 2.1 35.8
19:25 1019 30.09 849 25.07 17.2 63 41 3.8 38.9
19:30 1019 30.09 849 25.07 17.1 62.9 44 4.9 40.8
19:35 1020 30.12 849 25.07 17.1 62.7 45 5 41
19:40 1020 30.12 849 25.07 17 62.5 45 5.1 41.2
19:45 1020 30.12 849 25.07 17 62.5 45 5.1 41.2
19:50 1020 30.12 849 25.07 16.7 62 47 5.4 41.8
19:55 1020 30.12 849 25.07 16.4 61.6 48 5.4 41.7
20:00 1020 30.12 849 25.07 16.2 61.2 49 5.5 42
20:05 1020 30.12 849 25.07 16.1 60.9 49 5.3 41.6
20:10 1020 30.12 849 25.07 15.9 60.7 50 5.5 41.9
20:15 1020 30.12 849 25.07 15.8 60.4 52 6.1 43
20:20 1020 30.12 849 25.07 15.4 59.7 55 6.5 43.8
20:25 1020 30.12 849 25.07 15.1 59.2 57 6.8 44.2
20:30 1020 30.12 849 25.07 14.9 58.8 59 7 44.6
20:35 1020 30.12 849 25.07 14.9 58.8 60 7.3 45.1
20:40 1020 30.12 849 25.07 14.8 58.7 60 7.2 45
20:45 1020 30.12 849 25.07 14.6 58.3 60 7 44.5
20:50 1020 30.12 849 25.07 14.3 57.7 61 7.1 44.7
20:55 1020 30.12 849 25.07 13.8 56.9 65 7.4 45.3
21:00 1020 30.12 849 25.07 13.6 56.4 63 6.8 44.2
21:05 1020 30.12 849 25.07 13.6 56.5 59 5.8 42.5
21:10 1020 30.12 849 25.07 13.8 56.8 60 6.3 43.3
21:15 1020 30.12 849 25.07 13.7 56.7 60 6.1 43
21:20 1020 30.12 849 25.07 13.8 56.8 61 6.4 43.6
21:25 1020 30.12 849 25.07 13.8 56.9 59 6.1 42.9
21:30 1020 30.12 849 25.07 13.8 56.9 58 5.8 42.4
21:35 1020 30.12 849 25.07 13.9 57.1 57 5.6 42
21:40 1020 30.12 849 25.07 14.1 57.3 56 5.6 42.1
21:45 1020 30.12 849 25.07 14.3 57.7 54 5.3 41.6
21:50 1020 30.12 849 25.07 14.4 57.8 52 4.7 40.4
21:55 1020 30.12 849 25.07 14.5 58 55 5.6 42
22:00 1020 30.12 849 25.07 14.3 57.7 57 6 42.9
22:05 1020 30.12 849 25.07 14.1 57.3 59 6.2 43.1
22:10 1020 30.12 849 25.07 14 57.1 59 6.1 43
22:15 1020 30.12 849 25.07 14 57.1 59 6.2 43.1
22:20 1019 30.09 849 25.07 14 57.1 59 6.2 43.2
22:25 1019 30.09 849 25.07 13.8 56.8 63 6.9 44.5
22:30 1020 30.12 849 25.07 13.3 56 61 5.9 42.7
22:35 1020 30.12 849 25.07 13.4 56 60 5.9 42.6
22:40 1020 30.12 849 25.07 13.4 56.1 59 5.5 41.9
22:45 1020 30.12 849 25.07 13.5 56.2 57 5.2 41.4
22:50 1020 30.12 849 25.07 13.5 56.2 56 5 41
22:55 1020 30.12 849 25.07 13.4 56.2 56 4.8 40.7
23:00 1020 30.12 849 25.07 13.4 56.1 56 5 40.9
23:05 1020 30.12 849 25.07 13.2 55.8 56 4.8 40.7
23:10 1020 30.12 849 25.07 13.2 55.7 57 4.9 40.8
23:15 1020 30.12 849 25.07 13.1 55.7 56 4.6 40.3
23:20 1020 30.12 849 25.07 13.1 55.6 55 4.4 40
23:25 1020 30.12 849 25.07 13.2 55.7 55 4.3 39.8
23:30 1020 30.12 849 25.07 13.1 55.7 55 4.4 40
23:35 1020 30.12 849 25.07 13.1 55.6 55 4.3 39.8
23:40 1019 30.09 849 25.07 13.1 55.6 55 4.3 39.7
23:45 1019 30.09 849 25.07 13.2 55.7 54 4.2 39.6
23:50 1020 30.12 849 25.07 13.2 55.8 55 4.3 39.8
23:55 1020 30.12 849 25.07 13.2 55.7 55 4.4 39.9
24:00 1020 30.12 849 25.07 13.2 55.7 55 4.3 39.8